createdAt,value
2022-08-28T00:01:09.686Z,18.41
2022-08-28T00:02:09.682Z,18.40
2022-08-28T00:03:09.775Z,18.41
2022-08-28T00:04:09.675Z,18.40
2022-08-28T00:06:09.693Z,18.39
2022-08-28T00:07:09.700Z,18.38
2022-08-28T00:08:09.687Z,18.38
2022-08-28T00:09:09.685Z,18.38
2022-08-28T00:11:09.703Z,18.36
2022-08-28T00:12:09.732Z,18.36
2022-08-28T00:13:09.700Z,18.36
2022-08-28T00:14:09.718Z,18.37
2022-08-28T00:16:09.743Z,18.37
2022-08-28T00:17:09.703Z,18.37
2022-08-28T00:18:09.764Z,18.37
2022-08-28T00:19:09.703Z,18.37
2022-08-28T00:21:09.709Z,18.37
2022-08-28T00:22:09.704Z,18.35
2022-08-28T00:23:09.699Z,18.33
2022-08-28T00:24:09.712Z,18.30
2022-08-28T00:26:09.731Z,18.29
2022-08-28T00:27:09.704Z,18.28
2022-08-28T00:28:09.942Z,18.29
2022-08-28T00:29:09.718Z,18.29
2022-08-28T00:31:09.805Z,18.28
2022-08-28T00:32:09.698Z,18.27
2022-08-28T00:33:09.722Z,18.27
2022-08-28T00:34:09.736Z,18.26
2022-08-28T00:36:09.722Z,18.26
2022-08-28T00:37:09.737Z,18.27
2022-08-28T00:38:09.884Z,18.28
2022-08-28T00:39:09.737Z,18.28
2022-08-28T00:41:09.724Z,18.30
2022-08-28T00:42:09.714Z,18.28
2022-08-28T00:43:09.727Z,18.29
2022-08-28T00:44:09.764Z,18.30
2022-08-28T00:46:09.771Z,18.32
2022-08-28T00:47:09.723Z,18.32
2022-08-28T00:48:09.752Z,18.32
2022-08-28T00:49:09.732Z,18.34
2022-08-28T00:51:09.750Z,18.34
2022-08-28T00:52:12.055Z,18.34
2022-08-28T00:53:09.736Z,18.33
2022-08-28T00:54:09.740Z,18.33
2022-08-28T00:56:12.934Z,18.32
2022-08-28T00:57:09.745Z,18.31
2022-08-28T00:58:09.762Z,18.30
2022-08-28T00:59:09.741Z,18.29
2022-08-28T01:01:09.756Z,18.28
2022-08-28T01:02:09.780Z,18.29
2022-08-28T01:03:09.786Z,18.30
2022-08-28T01:04:09.744Z,18.31
2022-08-28T01:06:09.781Z,18.31
2022-08-28T01:07:09.760Z,18.32
2022-08-28T01:08:09.907Z,18.31
2022-08-28T01:09:09.758Z,18.31
2022-08-28T01:11:09.779Z,18.30
2022-08-28T01:12:09.771Z,18.30
2022-08-28T01:13:09.764Z,18.28
2022-08-28T01:14:09.763Z,18.28
2022-08-28T01:16:09.900Z,18.26
2022-08-28T01:17:09.774Z,18.25
2022-08-28T01:18:09.874Z,18.24
2022-08-28T01:19:09.791Z,18.24
2022-08-28T01:21:09.798Z,18.22
2022-08-28T01:22:09.802Z,18.21
2022-08-28T01:23:09.794Z,18.21
2022-08-28T01:24:09.793Z,18.21
2022-08-28T01:26:10.951Z,18.18
2022-08-28T01:27:09.797Z,18.17
2022-08-28T01:28:09.781Z,18.17
2022-08-28T01:29:09.808Z,18.17
2022-08-28T01:31:09.856Z,18.17
2022-08-28T01:32:09.797Z,18.17
2022-08-28T01:33:09.804Z,18.16
2022-08-28T01:34:09.806Z,18.17
2022-08-28T01:36:09.816Z,18.16
2022-08-28T01:37:09.798Z,18.15
2022-08-28T01:38:09.832Z,18.15
2022-08-28T01:39:09.785Z,18.15
2022-08-28T01:41:09.794Z,18.13
2022-08-28T01:42:09.826Z,18.13
2022-08-28T01:43:36.764Z,18.11
2022-08-28T01:44:36.781Z,18.11
2022-08-28T01:45:36.803Z,18.10
2022-08-28T01:46:36.860Z,18.09
2022-08-28T01:47:36.798Z,18.08
2022-08-28T01:48:36.811Z,18.07
2022-08-28T01:49:36.770Z,18.07
2022-08-28T01:50:36.789Z,18.08
2022-08-28T01:51:38.222Z,18.05
2022-08-28T01:52:36.780Z,18.05
2022-08-28T01:53:36.770Z,18.03
2022-08-28T01:54:36.779Z,18.03
2022-08-28T01:55:36.786Z,18.01
2022-08-28T01:56:36.794Z,18.00
2022-08-28T01:57:36.782Z,17.99
2022-08-28T01:58:38.424Z,17.98
2022-08-28T01:59:36.783Z,17.98
2022-08-28T02:00:36.798Z,17.97
2022-08-28T02:01:36.847Z,17.96
2022-08-28T02:02:36.806Z,17.97
2022-08-28T02:03:36.827Z,17.97
2022-08-28T02:04:36.830Z,17.97
2022-08-28T02:05:36.815Z,17.97
2022-08-28T02:06:36.786Z,17.99
2022-08-28T02:07:36.766Z,17.97
2022-08-28T02:08:36.795Z,17.96
2022-08-28T02:09:36.815Z,17.95
2022-08-28T02:10:36.830Z,17.95
2022-08-28T02:11:36.800Z,17.94
2022-08-28T02:12:36.793Z,17.93
2022-08-28T02:13:36.793Z,17.93
2022-08-28T02:14:36.788Z,17.90
2022-08-28T02:15:36.849Z,17.91
2022-08-28T02:16:36.782Z,17.90
2022-08-28T02:17:36.779Z,17.88
2022-08-28T02:18:36.809Z,17.86
2022-08-28T02:19:36.803Z,17.85
2022-08-28T02:20:36.833Z,17.82
2022-08-28T02:21:36.962Z,17.81
2022-08-28T02:22:36.961Z,17.78
2022-08-28T02:23:36.953Z,17.78
2022-08-28T02:24:37.182Z,17.76
2022-08-28T02:25:37.021Z,17.76
2022-08-28T02:26:36.998Z,17.75
2022-08-28T02:27:37.024Z,17.74
2022-08-28T02:28:37.025Z,17.73
2022-08-28T02:29:37.040Z,17.72
2022-08-28T02:30:37.120Z,17.72
2022-08-28T02:31:37.075Z,17.70
2022-08-28T02:32:37.079Z,17.69
2022-08-28T02:33:37.089Z,17.67
2022-08-28T02:34:37.106Z,17.67
2022-08-28T02:35:37.118Z,17.64
2022-08-28T02:36:37.131Z,17.63
2022-08-28T02:37:37.132Z,17.63
2022-08-28T02:38:37.149Z,17.63
2022-08-28T02:39:37.146Z,17.62
2022-08-28T02:40:37.296Z,17.62
2022-08-28T02:41:37.199Z,17.62
2022-08-28T02:42:37.210Z,17.61
2022-08-28T02:43:37.204Z,17.60
2022-08-28T02:44:37.220Z,17.61
2022-08-28T02:45:37.241Z,17.61
2022-08-28T02:46:37.277Z,17.61
2022-08-28T02:47:37.276Z,17.62
2022-08-28T02:48:37.261Z,17.62
2022-08-28T02:49:37.293Z,17.63
2022-08-28T02:50:37.324Z,17.61
2022-08-28T02:51:37.321Z,17.61
2022-08-28T02:52:37.335Z,17.60
2022-08-28T02:53:37.333Z,17.59
2022-08-28T02:54:37.342Z,17.59
2022-08-28T02:55:37.363Z,17.59
2022-08-28T02:56:37.376Z,17.58
2022-08-28T02:57:37.407Z,17.59
2022-08-28T02:58:37.395Z,17.57
2022-08-28T02:59:37.386Z,17.58
2022-08-28T03:00:37.433Z,17.58
2022-08-28T03:01:37.470Z,17.58
2022-08-28T03:02:37.502Z,17.58
2022-08-28T03:03:37.451Z,17.58
2022-08-28T03:04:37.478Z,17.58
2022-08-28T03:05:37.460Z,17.58
2022-08-28T03:06:37.464Z,17.60
2022-08-28T03:07:37.476Z,17.60
2022-08-28T03:08:37.481Z,17.60
2022-08-28T03:09:37.466Z,17.62
2022-08-28T03:10:37.468Z,17.61
2022-08-28T03:11:37.456Z,17.62
2022-08-28T03:12:37.451Z,17.62
2022-08-28T03:13:37.483Z,17.63
2022-08-28T03:14:37.450Z,17.63
2022-08-28T03:15:37.493Z,17.63
2022-08-28T03:16:37.520Z,17.63
2022-08-28T03:17:37.468Z,17.63
2022-08-28T03:18:37.482Z,17.62
2022-08-28T03:19:37.477Z,17.63
2022-08-28T03:20:37.505Z,17.61
2022-08-28T03:21:37.479Z,17.61
2022-08-28T03:22:37.483Z,17.61
2022-08-28T03:23:37.470Z,17.61
2022-08-28T03:24:37.492Z,17.62
2022-08-28T03:25:37.489Z,17.61
2022-08-28T03:26:37.466Z,17.61
2022-08-28T03:27:37.503Z,17.60
2022-08-28T03:28:37.483Z,17.59
2022-08-28T03:29:37.496Z,17.58
2022-08-28T03:30:37.591Z,17.54
2022-08-28T03:31:37.482Z,17.52
2022-08-28T03:32:37.502Z,17.51
2022-08-28T03:33:37.516Z,17.51
2022-08-28T03:34:37.529Z,17.51
2022-08-28T03:35:37.543Z,17.50
2022-08-28T03:36:37.530Z,17.51
2022-08-28T03:37:37.531Z,17.52
2022-08-28T03:38:37.540Z,17.51
2022-08-28T03:39:37.543Z,17.52
2022-08-28T03:40:37.586Z,17.51
2022-08-28T03:41:37.533Z,17.52
2022-08-28T03:42:37.505Z,17.51
2022-08-28T03:43:37.551Z,17.52
2022-08-28T03:44:37.539Z,17.52
2022-08-28T03:45:37.611Z,17.52
2022-08-28T03:46:37.529Z,17.53
2022-08-28T03:47:37.553Z,17.54
2022-08-28T03:48:37.533Z,17.53
2022-08-28T03:49:37.561Z,17.52
2022-08-28T03:50:37.562Z,17.52
2022-08-28T03:51:37.534Z,17.52
2022-08-28T03:52:37.542Z,17.52
2022-08-28T03:53:37.526Z,17.52
2022-08-28T03:54:37.549Z,17.52
2022-08-28T03:55:37.543Z,17.52
2022-08-28T03:56:37.562Z,17.53
2022-08-28T03:57:37.543Z,17.52
2022-08-28T03:58:37.555Z,17.53
2022-08-28T03:59:37.549Z,17.52
2022-08-28T04:00:37.566Z,17.52
2022-08-28T04:01:37.575Z,17.53
2022-08-28T04:02:37.549Z,17.51
2022-08-28T04:03:37.624Z,17.52
2022-08-28T04:04:37.557Z,17.53
2022-08-28T04:05:37.567Z,17.54
2022-08-28T04:06:37.555Z,17.54
2022-08-28T04:07:37.565Z,17.55
2022-08-28T04:08:37.556Z,17.56
2022-08-28T04:09:37.564Z,17.56
2022-08-28T04:10:37.580Z,17.56
2022-08-28T04:11:37.560Z,17.56
2022-08-28T04:12:37.539Z,17.56
2022-08-28T04:13:37.567Z,17.56
2022-08-28T04:14:37.606Z,17.56
2022-08-28T04:15:37.588Z,17.54
2022-08-28T04:16:37.655Z,17.54
2022-08-28T04:17:37.569Z,17.53
2022-08-28T04:18:37.573Z,17.53
2022-08-28T04:19:37.596Z,17.52
2022-08-28T04:20:37.571Z,17.52
2022-08-28T04:21:37.622Z,17.52
2022-08-28T04:22:37.599Z,17.51
2022-08-28T04:23:37.641Z,17.51
2022-08-28T04:24:37.658Z,17.49
2022-08-28T04:25:37.692Z,17.49
2022-08-28T04:26:37.674Z,17.47
2022-08-28T04:27:37.680Z,17.45
2022-08-28T04:28:37.741Z,17.45
2022-08-28T04:29:37.702Z,17.44
2022-08-28T04:30:37.729Z,17.44
2022-08-28T04:31:37.792Z,17.44
2022-08-28T04:32:37.742Z,17.44
2022-08-28T04:33:37.770Z,17.42
2022-08-28T04:34:37.769Z,17.43
2022-08-28T04:35:37.785Z,17.42
2022-08-28T04:36:37.790Z,17.42
2022-08-28T04:37:37.795Z,17.39
2022-08-28T04:38:42.975Z,17.38
2022-08-28T04:39:37.814Z,17.38
2022-08-28T04:40:37.871Z,17.35
2022-08-28T04:41:37.806Z,17.35
2022-08-28T04:42:37.805Z,17.33
2022-08-28T04:43:37.813Z,17.32
2022-08-28T04:44:37.830Z,17.31
2022-08-28T04:45:37.854Z,17.30
2022-08-28T04:46:37.827Z,17.30
2022-08-28T04:47:37.824Z,17.28
2022-08-28T04:48:37.835Z,17.27
2022-08-28T04:49:37.818Z,17.25
2022-08-28T04:50:37.836Z,17.23
2022-08-28T04:51:41.896Z,17.21
2022-08-28T04:52:37.817Z,17.19
2022-08-28T04:53:37.842Z,17.18
2022-08-28T04:54:37.807Z,17.16
2022-08-28T04:55:54.700Z,17.13
2022-08-28T04:56:37.814Z,17.13
2022-08-28T04:57:37.843Z,17.12
2022-08-28T04:58:37.820Z,17.10
2022-08-28T04:59:37.857Z,17.09
2022-08-28T05:00:37.969Z,17.07
2022-08-28T05:01:37.820Z,17.06
2022-08-28T05:02:37.909Z,17.03
2022-08-28T05:03:37.879Z,17.01
2022-08-28T05:04:37.857Z,16.99
2022-08-28T05:05:37.862Z,16.97
2022-08-28T05:06:37.858Z,16.95
2022-08-28T05:07:37.869Z,16.95
2022-08-28T05:08:37.829Z,16.94
2022-08-28T05:09:37.828Z,16.93
2022-08-28T05:10:37.868Z,16.92
2022-08-28T05:11:37.857Z,16.91
2022-08-28T05:12:37.873Z,16.91
2022-08-28T05:13:37.846Z,16.90
2022-08-28T05:14:37.865Z,16.90
2022-08-28T05:15:37.869Z,16.90
2022-08-28T05:16:37.877Z,16.90
2022-08-28T05:17:37.855Z,16.90
2022-08-28T05:18:37.834Z,16.89
2022-08-28T05:19:37.879Z,16.87
2022-08-28T05:20:37.887Z,16.87
2022-08-28T05:21:37.876Z,16.86
2022-08-28T05:22:37.864Z,16.85
2022-08-28T05:23:37.883Z,16.84
2022-08-28T05:24:37.852Z,16.83
2022-08-28T05:25:37.886Z,16.83
2022-08-28T05:26:38.953Z,16.84
2022-08-28T05:27:37.880Z,16.83
2022-08-28T05:28:37.908Z,16.85
2022-08-28T05:29:37.863Z,16.85
2022-08-28T05:30:37.881Z,16.86
2022-08-28T05:31:37.918Z,16.87
2022-08-28T05:32:37.862Z,16.89
2022-08-28T05:33:37.877Z,16.90
2022-08-28T05:34:37.874Z,16.91
2022-08-28T05:35:37.897Z,16.92
2022-08-28T05:36:37.869Z,16.95
2022-08-28T05:37:37.880Z,16.98
2022-08-28T05:38:37.884Z,17.01
2022-08-28T05:39:37.909Z,17.05
2022-08-28T05:40:37.899Z,17.09
2022-08-28T05:41:37.869Z,17.13
2022-08-28T05:42:39.125Z,17.18
2022-08-28T05:43:37.891Z,17.23
2022-08-28T05:44:37.904Z,17.28
2022-08-28T05:45:37.970Z,17.32
2022-08-28T05:46:37.914Z,17.37
2022-08-28T05:47:37.897Z,17.41
2022-08-28T05:48:39.538Z,17.43
2022-08-28T05:49:37.896Z,17.48
2022-08-28T05:50:37.919Z,17.51
2022-08-28T05:51:37.900Z,17.54
2022-08-28T05:52:37.903Z,17.59
2022-08-28T05:53:37.892Z,17.61
2022-08-28T05:54:37.907Z,17.65
2022-08-28T05:55:37.923Z,17.67
2022-08-28T05:56:37.929Z,17.69
2022-08-28T05:57:37.912Z,17.67
2022-08-28T05:58:37.911Z,17.66
2022-08-28T05:59:37.924Z,17.64
2022-08-28T06:00:37.936Z,17.61
2022-08-28T06:01:37.996Z,17.58
2022-08-28T06:02:37.965Z,17.56
2022-08-28T06:03:38.035Z,17.56
2022-08-28T06:04:38.056Z,17.55
2022-08-28T06:05:38.001Z,17.54
2022-08-28T06:06:38.002Z,17.54
2022-08-28T06:07:38.007Z,17.54
2022-08-28T06:08:38.041Z,17.53
2022-08-28T06:09:38.048Z,17.51
2022-08-28T06:10:38.037Z,17.52
2022-08-28T06:11:38.050Z,17.52
2022-08-28T06:12:38.052Z,17.52
2022-08-28T06:13:38.028Z,17.54
2022-08-28T06:14:38.006Z,17.55
2022-08-28T06:15:38.052Z,17.54
2022-08-28T06:16:38.162Z,17.55
2022-08-28T06:17:38.045Z,17.58
2022-08-28T06:18:38.066Z,17.60
2022-08-28T06:19:41.275Z,17.61
2022-08-28T06:20:38.045Z,17.61
2022-08-28T06:21:38.023Z,17.63
2022-08-28T06:22:38.028Z,17.64
2022-08-28T06:23:38.044Z,17.63
2022-08-28T06:24:38.042Z,17.63
2022-08-28T06:25:38.069Z,17.64
2022-08-28T06:26:38.057Z,17.65
2022-08-28T06:27:38.041Z,17.65
2022-08-28T06:28:38.044Z,17.64
2022-08-28T06:29:38.062Z,17.63
2022-08-28T06:30:40.112Z,17.63
2022-08-28T06:31:38.173Z,17.62
2022-08-28T06:32:38.056Z,17.63
2022-08-28T06:33:38.042Z,17.64
2022-08-28T06:34:38.047Z,17.68
2022-08-28T06:35:38.101Z,17.69
2022-08-28T06:36:38.048Z,17.72
2022-08-28T06:37:38.045Z,17.74
2022-08-28T06:38:38.059Z,17.75
2022-08-28T06:39:38.070Z,17.77
2022-08-28T06:40:38.117Z,17.79
2022-08-28T06:41:38.065Z,17.83
2022-08-28T06:42:38.056Z,17.87
2022-08-28T06:43:38.054Z,17.89
2022-08-28T06:44:38.082Z,17.93
2022-08-28T06:45:38.106Z,17.94
2022-08-28T06:46:38.066Z,17.97
2022-08-28T06:47:38.059Z,17.98
2022-08-28T06:48:38.056Z,17.96
2022-08-28T06:49:38.081Z,17.97
2022-08-28T06:50:38.095Z,17.97
2022-08-28T06:51:38.080Z,17.99
2022-08-28T06:52:38.091Z,18.01
2022-08-28T06:53:38.087Z,18.02
2022-08-28T06:54:38.107Z,18.04
2022-08-28T06:55:38.097Z,18.07
2022-08-28T06:56:38.081Z,18.11
2022-08-28T06:57:38.082Z,18.21
2022-08-28T06:58:38.079Z,18.35
2022-08-28T06:59:38.074Z,18.52
2022-08-28T07:00:38.107Z,18.68
2022-08-28T07:01:38.123Z,18.81
2022-08-28T07:02:38.117Z,18.93
2022-08-28T07:03:38.066Z,19.08
2022-08-28T07:04:38.096Z,19.20
2022-08-28T07:05:38.115Z,19.34
2022-08-28T07:06:38.094Z,19.41
2022-08-28T07:07:38.091Z,19.45
2022-08-28T07:08:38.101Z,19.53
2022-08-28T07:09:38.155Z,19.58
2022-08-28T07:10:38.098Z,19.68
2022-08-28T07:11:38.107Z,19.79
2022-08-28T07:12:38.101Z,19.89
2022-08-28T07:13:38.114Z,19.99
2022-08-28T07:14:38.106Z,20.11
2022-08-28T07:15:38.191Z,20.33
2022-08-28T07:16:38.318Z,20.55
2022-08-28T07:17:38.118Z,20.78
2022-08-28T07:18:38.133Z,20.95
2022-08-28T07:19:38.110Z,21.05
2022-08-28T07:20:38.115Z,21.12
2022-08-28T07:21:38.317Z,21.20
2022-08-28T07:22:38.118Z,21.32
2022-08-28T07:23:38.111Z,21.47
2022-08-28T07:24:38.090Z,21.59
2022-08-28T07:25:38.139Z,21.67
2022-08-28T07:26:38.129Z,21.73
2022-08-28T07:27:38.121Z,21.88
2022-08-28T07:28:38.124Z,21.88
2022-08-28T07:29:38.125Z,21.79
2022-08-28T07:30:38.139Z,21.84
2022-08-28T07:31:38.212Z,21.87
2022-08-28T07:32:38.134Z,21.90
2022-08-28T07:33:38.144Z,21.94
2022-08-28T07:34:38.126Z,22.00
2022-08-28T07:35:38.126Z,22.05
2022-08-28T07:36:38.149Z,22.17
2022-08-28T07:37:40.641Z,22.32
2022-08-28T07:38:38.157Z,22.41
2022-08-28T07:39:38.144Z,22.41
2022-08-28T07:40:38.186Z,22.47
2022-08-28T07:41:38.145Z,22.56
2022-08-28T07:42:38.169Z,22.65
2022-08-28T07:44:08.074Z,22.79
2022-08-28T07:45:08.086Z,22.86
2022-08-28T07:46:08.173Z,23.06
2022-08-28T07:47:08.704Z,23.16
2022-08-28T07:48:11.350Z,23.12
2022-08-28T07:49:08.092Z,22.93
2022-08-28T07:50:08.104Z,22.73
2022-08-28T07:51:08.088Z,22.58
2022-08-28T07:52:08.097Z,22.42
2022-08-28T07:53:08.113Z,22.31
2022-08-28T07:54:10.166Z,22.32
2022-08-28T07:55:08.079Z,22.37
2022-08-28T07:56:08.113Z,22.33
2022-08-28T07:57:08.100Z,22.38
2022-08-28T07:58:08.111Z,22.53
2022-08-28T07:59:08.095Z,22.58
2022-08-28T08:00:08.098Z,22.57
2022-08-28T08:01:08.184Z,22.66
2022-08-28T08:02:08.101Z,22.73
2022-08-28T08:03:08.159Z,22.70
2022-08-28T08:04:08.100Z,22.65
2022-08-28T08:05:08.098Z,22.58
2022-08-28T08:06:08.118Z,22.43
2022-08-28T08:07:08.126Z,22.28
2022-08-28T08:08:08.103Z,22.02
2022-08-28T08:09:08.105Z,21.80
2022-08-28T08:10:08.102Z,21.59
2022-08-28T08:11:08.137Z,21.38
2022-08-28T08:12:08.129Z,21.28
2022-08-28T08:13:08.134Z,21.23
2022-08-28T08:14:08.133Z,21.21
2022-08-28T08:15:08.127Z,21.21
2022-08-28T08:16:08.189Z,21.20
2022-08-28T08:17:08.134Z,21.19
2022-08-28T08:18:08.188Z,21.12
2022-08-28T08:19:08.127Z,21.09
2022-08-28T08:20:08.140Z,21.09
2022-08-28T08:21:08.143Z,21.09
2022-08-28T08:22:08.263Z,21.07
2022-08-28T08:23:08.246Z,21.10
2022-08-28T08:24:08.288Z,21.19
2022-08-28T08:25:08.297Z,21.35
2022-08-28T08:26:08.332Z,21.54
2022-08-28T08:27:08.331Z,21.71
2022-08-28T08:28:08.352Z,21.93
2022-08-28T08:29:08.372Z,22.13
2022-08-28T08:30:08.358Z,22.34
2022-08-28T08:31:08.430Z,22.57
2022-08-28T08:32:08.375Z,22.81
2022-08-28T08:33:08.456Z,23.09
2022-08-28T08:34:08.398Z,23.37
2022-08-28T08:35:08.419Z,23.59
2022-08-28T08:36:08.434Z,23.66
2022-08-28T08:37:08.479Z,23.81
2022-08-28T08:38:08.486Z,23.92
2022-08-28T08:39:09.722Z,24.02
2022-08-28T08:40:10.694Z,24.12
2022-08-28T08:41:08.534Z,24.16
2022-08-28T08:42:08.516Z,24.15
2022-08-28T08:43:08.516Z,24.17
2022-08-28T08:44:08.534Z,24.21
2022-08-28T08:45:08.549Z,24.33
2022-08-28T08:46:08.627Z,24.34
2022-08-28T08:47:13.252Z,24.45
2022-08-28T08:48:08.623Z,24.65
2022-08-28T08:49:08.567Z,24.76
2022-08-28T08:50:08.596Z,24.74
2022-08-28T08:51:08.575Z,24.61
2022-08-28T08:52:08.621Z,24.63
2022-08-28T08:53:08.570Z,24.68
2022-08-28T08:54:08.578Z,24.55
2022-08-28T08:55:08.606Z,24.48
2022-08-28T08:56:08.607Z,24.41
2022-08-28T08:57:08.605Z,24.48
2022-08-28T08:58:08.633Z,24.65
2022-08-28T08:59:08.599Z,24.85
2022-08-28T09:00:11.216Z,25.01
2022-08-28T09:01:08.629Z,25.11
2022-08-28T09:02:08.592Z,25.17
2022-08-28T09:03:08.636Z,25.09
2022-08-28T09:04:08.609Z,24.97
2022-08-28T09:05:08.621Z,24.72
2022-08-28T09:06:08.604Z,24.51
2022-08-28T09:07:08.590Z,24.26
2022-08-28T09:08:08.672Z,23.93
2022-08-28T09:09:08.622Z,23.67
2022-08-28T09:10:08.635Z,23.52
2022-08-28T09:11:08.594Z,23.44
2022-08-28T09:12:08.626Z,23.39
2022-08-28T09:13:08.635Z,23.36
2022-08-28T09:14:08.606Z,23.31
2022-08-28T09:15:08.620Z,23.32
2022-08-28T09:16:08.686Z,23.37
2022-08-28T09:17:08.623Z,23.52
2022-08-28T09:18:08.600Z,23.73
2022-08-28T09:19:08.624Z,24.00
2022-08-28T09:20:08.651Z,24.27
2022-08-28T09:21:08.630Z,24.40
2022-08-28T09:22:08.630Z,24.41
2022-08-28T09:23:13.506Z,24.50
2022-08-28T09:24:11.044Z,24.66
2022-08-28T09:25:08.630Z,24.85
2022-08-28T09:26:08.624Z,24.95
2022-08-28T09:27:13.759Z,25.06
2022-08-28T09:28:08.708Z,25.23
2022-08-28T09:29:08.646Z,25.52
2022-08-28T09:30:08.671Z,25.82
2022-08-28T09:31:08.666Z,26.00
2022-08-28T09:32:08.650Z,26.03
2022-08-28T09:33:08.679Z,26.00
2022-08-28T09:34:08.627Z,25.76
2022-08-28T09:35:08.681Z,25.51
2022-08-28T09:36:08.633Z,25.39
2022-08-28T09:37:08.656Z,25.39
2022-08-28T09:38:08.706Z,25.42
2022-08-28T09:39:08.663Z,25.42
2022-08-28T09:40:08.704Z,25.35
2022-08-28T09:41:08.667Z,25.05
2022-08-28T09:42:08.651Z,24.77
2022-08-28T09:43:08.649Z,24.71
2022-08-28T09:44:08.672Z,24.81
2022-08-28T09:45:09.576Z,24.98
2022-08-28T09:46:08.692Z,25.04
2022-08-28T09:47:08.655Z,25.14
2022-08-28T09:48:08.683Z,25.30
2022-08-28T09:49:08.677Z,25.34
2022-08-28T09:50:08.706Z,25.50
2022-08-28T09:51:08.661Z,25.77
2022-08-28T09:52:08.662Z,26.12
2022-08-28T09:53:08.672Z,26.38
2022-08-28T09:54:08.668Z,26.53
2022-08-28T09:55:08.675Z,26.65
2022-08-28T09:56:08.707Z,26.82
2022-08-28T09:57:08.704Z,26.87
2022-08-28T09:58:08.789Z,26.74
2022-08-28T09:59:08.746Z,26.50
2022-08-28T10:00:08.789Z,26.23
2022-08-28T10:01:08.948Z,26.04
2022-08-28T10:02:08.863Z,25.91
2022-08-28T10:03:08.792Z,25.81
2022-08-28T10:04:08.821Z,25.65
2022-08-28T10:05:08.822Z,25.45
2022-08-28T10:06:08.808Z,25.24
2022-08-28T10:07:08.818Z,25.03
2022-08-28T10:08:08.911Z,24.85
2022-08-28T10:09:08.869Z,24.68
2022-08-28T10:10:08.893Z,24.50
2022-08-28T10:11:08.886Z,24.56
2022-08-28T10:12:08.892Z,24.75
2022-08-28T10:13:08.897Z,24.92
2022-08-28T10:14:08.911Z,25.02
2022-08-28T10:15:08.945Z,25.09
2022-08-28T10:16:08.991Z,25.26
2022-08-28T10:17:08.956Z,25.57
2022-08-28T10:18:09.018Z,25.82
2022-08-28T10:19:09.005Z,25.98
2022-08-28T10:20:09.012Z,26.10
2022-08-28T10:21:09.016Z,26.28
2022-08-28T10:22:09.026Z,26.55
2022-08-28T10:23:09.024Z,26.91
2022-08-28T10:24:09.035Z,27.41
2022-08-28T10:25:09.066Z,27.99
2022-08-28T10:26:09.095Z,28.27
2022-08-28T10:27:09.073Z,28.04
2022-08-28T10:28:09.171Z,28.07
2022-08-28T10:29:09.123Z,28.21
2022-08-28T10:30:12.994Z,28.46
2022-08-28T10:31:09.192Z,28.21
2022-08-28T10:32:09.137Z,28.06
2022-08-28T10:33:09.137Z,28.28
2022-08-28T10:34:09.141Z,28.66
2022-08-28T10:35:09.126Z,29.03
2022-08-28T10:36:09.129Z,29.17
2022-08-28T10:37:09.124Z,29.11
2022-08-28T10:38:09.131Z,29.23
2022-08-28T10:39:09.115Z,29.54
2022-08-28T10:40:09.222Z,29.95
2022-08-28T10:41:09.142Z,30.23
2022-08-28T10:42:09.150Z,30.50
2022-08-28T10:43:09.149Z,30.86
2022-08-28T10:44:09.150Z,30.99
2022-08-28T10:45:09.147Z,30.82
2022-08-28T10:46:09.203Z,30.86
2022-08-28T10:47:09.160Z,30.92
2022-08-28T10:48:09.226Z,30.73
2022-08-28T10:49:09.135Z,30.34
2022-08-28T10:50:09.163Z,30.17
2022-08-28T10:51:09.144Z,30.26
2022-08-28T10:52:09.141Z,30.51
2022-08-28T10:53:09.165Z,30.50
2022-08-28T10:54:09.155Z,30.41
2022-08-28T10:55:09.161Z,30.57
2022-08-28T10:56:09.187Z,30.76
2022-08-28T10:57:09.182Z,30.92
2022-08-28T10:58:24.371Z,31.15
2022-08-28T10:59:09.173Z,31.35
2022-08-28T11:00:09.187Z,31.34
2022-08-28T11:01:09.217Z,31.30
2022-08-28T11:02:09.208Z,31.17
2022-08-28T11:03:22.268Z,30.83
2022-08-28T11:04:09.208Z,30.54
2022-08-28T11:05:09.183Z,30.30
2022-08-28T11:06:09.170Z,30.10
2022-08-28T11:07:09.249Z,29.68
2022-08-28T11:08:09.227Z,29.32
2022-08-28T11:09:09.177Z,29.07
2022-08-28T11:10:09.208Z,28.64
2022-08-28T11:11:09.194Z,27.90
2022-08-28T11:12:09.185Z,27.49
2022-08-28T11:13:09.254Z,27.14
2022-08-28T11:14:09.211Z,26.84
2022-08-28T11:15:09.221Z,26.53
2022-08-28T11:16:09.199Z,26.55
2022-08-28T11:17:09.257Z,26.86
2022-08-28T11:18:09.204Z,27.25
2022-08-28T11:19:09.243Z,27.68
2022-08-28T11:20:09.217Z,27.72
2022-08-28T11:21:09.203Z,27.87
2022-08-28T11:22:09.209Z,28.11
2022-08-28T11:23:09.254Z,28.49
2022-08-28T11:24:09.219Z,28.95
2022-08-28T11:25:09.893Z,29.41
2022-08-28T11:26:09.206Z,29.79
2022-08-28T11:27:09.210Z,30.21
2022-08-28T11:28:09.250Z,30.64
2022-08-28T11:29:09.205Z,30.82
2022-08-28T11:30:09.234Z,31.01
2022-08-28T11:31:09.266Z,31.35
2022-08-28T11:32:09.240Z,31.70
2022-08-28T11:33:09.237Z,31.90
2022-08-28T11:34:09.251Z,32.01
2022-08-28T11:35:09.236Z,32.05
2022-08-28T11:36:09.212Z,32.23
2022-08-28T11:37:09.200Z,32.49
2022-08-28T11:38:09.234Z,32.65
2022-08-28T11:39:09.251Z,32.91
2022-08-28T11:40:09.247Z,33.19
2022-08-28T11:41:09.237Z,33.42
2022-08-28T11:42:09.224Z,33.23
2022-08-28T11:43:09.234Z,33.27
2022-08-28T11:44:09.241Z,33.18
2022-08-28T11:45:09.241Z,32.89
2022-08-28T11:46:09.282Z,32.53
2022-08-28T11:47:09.259Z,32.22
2022-08-28T11:48:09.248Z,32.18
2022-08-28T11:49:09.257Z,32.19
2022-08-28T11:50:09.278Z,32.08
2022-08-28T11:51:09.264Z,31.87
2022-08-28T11:52:09.266Z,31.56
2022-08-28T11:53:09.320Z,31.26
2022-08-28T11:54:09.248Z,30.99
2022-08-28T11:55:09.310Z,30.76
2022-08-28T11:56:09.256Z,30.50
2022-08-28T11:57:09.235Z,30.28
2022-08-28T11:59:09.938Z,29.62
2022-08-28T12:00:09.266Z,29.10
2022-08-28T12:01:09.267Z,28.69
2022-08-28T12:02:09.338Z,28.52
2022-08-28T12:03:09.302Z,28.82
2022-08-28T12:04:09.418Z,29.32
2022-08-28T12:05:09.290Z,29.80
2022-08-28T12:06:09.254Z,30.37
2022-08-28T12:07:09.295Z,30.95
2022-08-28T12:08:09.277Z,31.42
2022-08-28T12:09:09.282Z,31.48
2022-08-28T12:10:09.302Z,31.10
2022-08-28T12:11:09.263Z,30.78
2022-08-28T12:12:09.273Z,30.59
2022-08-28T12:13:09.307Z,30.49
2022-08-28T12:14:09.273Z,30.58
2022-08-28T12:15:09.286Z,30.67
2022-08-28T12:16:09.339Z,30.68
2022-08-28T12:17:09.293Z,30.89
2022-08-28T12:18:09.287Z,31.02
2022-08-28T12:19:09.287Z,31.08
2022-08-28T12:20:09.323Z,31.00
2022-08-28T12:21:09.296Z,31.34
2022-08-28T12:22:09.300Z,31.75
2022-08-28T12:23:09.321Z,32.13
2022-08-28T12:24:10.041Z,32.61
2022-08-28T12:25:09.316Z,32.70
2022-08-28T12:26:09.307Z,32.86
2022-08-28T12:27:09.322Z,32.77
2022-08-28T12:28:12.874Z,32.40
2022-08-28T12:29:09.326Z,31.93
2022-08-28T12:30:09.312Z,31.40
2022-08-28T12:31:09.374Z,30.80
2022-08-28T12:32:09.304Z,30.29
2022-08-28T12:33:09.306Z,29.76
2022-08-28T12:34:09.329Z,29.25
2022-08-28T12:35:09.343Z,28.82
2022-08-28T12:36:09.314Z,28.53
2022-08-28T12:37:09.354Z,28.48
2022-08-28T12:38:09.328Z,28.60
2022-08-28T12:39:09.312Z,28.88
2022-08-28T12:40:09.361Z,29.20
2022-08-28T12:41:09.333Z,29.61
2022-08-28T12:42:09.316Z,30.08
2022-08-28T12:43:09.355Z,30.44
2022-08-28T12:44:09.354Z,30.91
2022-08-28T12:45:09.355Z,31.51
2022-08-28T12:46:19.024Z,32.05
2022-08-28T12:47:09.322Z,32.54
2022-08-28T12:48:09.341Z,33.02
2022-08-28T12:49:09.352Z,33.37
2022-08-28T12:50:09.344Z,33.47
2022-08-28T12:51:09.365Z,33.57
2022-08-28T12:52:09.338Z,33.53
2022-08-28T12:53:09.401Z,33.07
2022-08-28T12:54:09.339Z,32.70
2022-08-28T12:55:09.350Z,32.63
2022-08-28T12:56:09.358Z,32.72
2022-08-28T12:57:09.345Z,32.85
2022-08-28T12:58:09.373Z,32.96
2022-08-28T12:59:09.365Z,32.93
2022-08-28T13:00:09.368Z,32.99
2022-08-28T13:01:09.533Z,32.85
2022-08-28T13:02:09.547Z,32.74
2022-08-28T13:03:09.390Z,32.73
2022-08-28T13:04:09.370Z,32.68
2022-08-28T13:05:09.375Z,32.49
2022-08-28T13:06:09.367Z,32.22
2022-08-28T13:07:09.395Z,31.79
2022-08-28T13:08:09.381Z,31.21
2022-08-28T13:09:09.390Z,30.86
2022-08-28T13:10:09.365Z,30.81
2022-08-28T13:11:09.392Z,30.82
2022-08-28T13:12:09.389Z,30.88
2022-08-28T13:13:09.379Z,30.97
2022-08-28T13:14:09.383Z,30.99
2022-08-28T13:15:09.404Z,30.76